<?xml version='1.0' encoding='UTF-8'?>
<gpx xmlns="http://www.topografix.com/GPX/1/1" creator="www.balnam.be" version="1.1" xmlns:xsi="http://www.w3.org/2001/XMLSchema-instance" xsi:schemaLocation="http://www.topografix.com/GPX/1/1 http://www.topografix.com/GPX/1/1/gpx.xsd">
<trk>
<name>bhlne37</name>
<cmt>q</cmt>
<desc>Neerheylissem Sentier n°37 </desc>
<link href="https://chemins.be/neerheylissem/sentier/37"/><trkseg>
<trkpt lat="50.747530" lon="4.987096"><time>2026-05-02T18:32:15Z</time></trkpt>
<trkpt lat="50.747518" lon="4.986776"><time>2026-05-02T18:42:15Z</time></trkpt>
<trkpt lat="50.748116" lon="4.986857"><time>2026-05-02T18:52:15Z</time></trkpt>
<trkpt lat="50.749487" lon="4.986707"><time>2026-05-02T19:02:15Z</time></trkpt>
<trkpt lat="50.750400" lon="4.987597"><time>2026-05-02T19:12:15Z</time></trkpt>
<trkpt lat="50.750852" lon="4.987994"><time>2026-05-02T19:22:15Z</time></trkpt>
<trkpt lat="50.751408" lon="4.988241"><time>2026-05-02T19:32:15Z</time></trkpt>
<trkpt lat="50.752871" lon="4.988421"><time>2026-05-02T19:42:15Z</time></trkpt>
<trkpt lat="50.754772" lon="4.988732"><time>2026-05-02T19:52:15Z</time></trkpt>
<trkpt lat="50.755327" lon="4.989274"><time>2026-05-02T20:02:15Z</time></trkpt>
<trkpt lat="50.755618" lon="4.989558"><time>2026-05-02T20:12:15Z</time></trkpt>
<trkpt lat="50.755853" lon="4.989408"><time>2026-05-02T20:22:15Z</time></trkpt>
</trkseg></trk>
<trk>
<name>bhlne37</name>
<cmt>v</cmt>
<desc>Neerheylissem Sentier n°37 </desc>
<link href="https://chemins.be/neerheylissem/sentier/37"/><trkseg>
<trkpt lat="50.755853" lon="4.989408"><time>2026-05-02T20:22:15Z</time></trkpt>
<trkpt lat="50.756636" lon="4.989725"><time>2026-05-02T20:32:15Z</time></trkpt>
<trkpt lat="50.757584" lon="4.990860"><time>2026-05-02T20:42:15Z</time></trkpt>
<trkpt lat="50.758067" lon="4.991324"><time>2026-05-02T20:52:15Z</time></trkpt>
<trkpt lat="50.758131" lon="4.991480"><time>2026-05-02T21:02:15Z</time></trkpt>
<trkpt lat="50.758217" lon="4.991722"><time>2026-05-02T21:12:15Z</time></trkpt>
</trkseg></trk>
<trk>
<name>bhlne37</name>
<cmt>q</cmt>
<desc>Neerheylissem Sentier n°37 </desc>
<link href="https://chemins.be/neerheylissem/sentier/37"/><trkseg>
<trkpt lat="50.758217" lon="4.991722"><time>2026-05-02T21:12:15Z</time></trkpt>
<trkpt lat="50.758471" lon="4.992260"><time>2026-05-02T21:22:15Z</time></trkpt>
<trkpt lat="50.758987" lon="4.992300"><time>2026-05-02T21:32:15Z</time></trkpt>
<trkpt lat="50.759543" lon="4.992350"><time>2026-05-02T21:42:15Z</time></trkpt>
<trkpt lat="50.760098" lon="4.993019"><time>2026-05-02T21:52:15Z</time></trkpt>
<trkpt lat="50.761292" lon="4.993541"><time>2026-05-02T22:02:15Z</time></trkpt>
<trkpt lat="50.762330" lon="4.994442"><time>2026-05-02T22:12:15Z</time></trkpt>
<trkpt lat="50.762423" lon="4.994833"><time>2026-05-02T22:22:15Z</time></trkpt>
<trkpt lat="50.762367" lon="4.995509"><time>2026-05-02T22:32:15Z</time></trkpt>
<trkpt lat="50.762709" lon="4.996474"><time>2026-05-02T22:42:15Z</time></trkpt>
</trkseg></trk>
<trk>
<name>bhlne37</name>
<cmt>v</cmt>
<desc>Neerheylissem Sentier n°37 </desc>
<link href="https://chemins.be/neerheylissem/sentier/37"/><trkseg>
<trkpt lat="50.762709" lon="4.996474"><time>2026-05-02T22:42:15Z</time></trkpt>
<trkpt lat="50.762828" lon="4.997004"><time>2026-05-02T22:52:15Z</time></trkpt>
</trkseg></trk>
<trk>
<name>bhlne37</name>
<cmt>q</cmt>
<desc>Neerheylissem Sentier n°37 </desc>
<link href="https://chemins.be/neerheylissem/sentier/37"/><trkseg>
<trkpt lat="50.762828" lon="4.997004"><time>2026-05-02T22:52:15Z</time></trkpt>
<trkpt lat="50.763145" lon="4.996927"><time>2026-05-02T23:02:15Z</time></trkpt>
<trkpt lat="50.763866" lon="4.997807"><time>2026-05-02T23:12:15Z</time></trkpt>
<trkpt lat="50.764201" lon="4.998552"><time>2026-05-02T23:22:15Z</time></trkpt>
<trkpt lat="50.764574" lon="4.999385"><time>2026-05-02T23:32:15Z</time></trkpt>
<trkpt lat="50.765165" lon="4.999653"><time>2026-05-02T23:42:15Z</time></trkpt>
<trkpt lat="50.765647" lon="4.999671"><time>2026-05-02T23:52:15Z</time></trkpt>
<trkpt lat="50.765914" lon="5.000025"><time>2026-05-03T00:02:15Z</time></trkpt>
</trkseg>
</trk>
</gpx>